Time;durP1;ratioP1;P1;durP2;ratioP2;P2;SDS_P1;SDS_P2;PMS_P1;PMS_P2;Temp;Humidity;BMP_temperature;BMP_pressure;BME280_temperature;BME280_humidity;BME280_pressure;Samples;Min_cycle;Max_cycle;Signal;HPM_P1;HPM_P2
2023/02/06 00:00:38;;;;;;;6.88;2.55;;;6.80;99.90;;;;;;5044287;28;20029;-84
2023/02/06 00:03:04;;;;;;;6.38;1.98;;;;;;;;;;5026361;28;20029;-87
2023/02/06 00:05:30;;;;;;;3.97;1.95;;;6.80;99.90;;;;;;5026073;28;20029;-84
2023/02/06 00:07:56;;;;;;;5.50;1.73;;;7.20;99.90;;;;;;5026160;28;20040;-87
2023/02/06 00:10:22;;;;;;;5.32;2.15;;;6.90;99.90;;;;;;5025166;28;20037;-86
2023/02/06 00:12:47;;;;;;;5.80;2.13;;;6.80;99.90;;;;;;5025481;28;20021;-85
2023/02/06 00:15:13;;;;;;;5.75;2.30;;;6.80;99.90;;;;;;5023089;28;20044;-84
2023/02/06 00:17:39;;;;;;;6.60;2.03;;;8.10;99.90;;;;;;5024254;28;20057;-83
2023/02/06 00:20:06;;;;;;;4.47;1.95;;;6.80;99.90;;;;;;5024668;28;20026;-86
2023/02/06 00:22:32;;;;;;;6.10;2.00;;;6.80;99.90;;;;;;5043040;28;20029;-87
2023/02/06 00:24:58;;;;;;;5.75;1.92;;;7.70;99.90;;;;;;5017337;28;20045;-85
2023/02/06 00:27:24;;;;;;;5.88;2.20;;;;;;;;;;5023332;28;20033;-86
2023/02/06 00:29:50;;;;;;;6.93;2.15;;;6.70;99.90;;;;;;5010094;28;20045;-86
2023/02/06 00:32:16;;;;;;;5.32;1.80;;;;;;;;;;5012750;28;20022;-85
2023/02/06 00:34:41;;;;;;;6.75;2.20;;;6.60;99.90;;;;;;5020522;28;20543;-88
2023/02/06 00:37:07;;;;;;;6.70;2.08;;;;;;;;;;5040890;28;20033;-83
2023/02/06 00:39:33;;;;;;;7.57;2.10;;;;;;;;;;5007426;28;20042;-88
2023/02/06 00:41:59;;;;;;;7.30;2.17;;;6.60;99.90;;;;;;5039341;28;20064;-85
2023/02/06 00:44:25;;;;;;;3.70;1.80;;;;;;;;;;5021711;28;20025;-85
2023/02/06 00:46:51;;;;;;;7.32;2.08;;;6.60;99.90;;;;;;5028790;28;20029;-87
2023/02/06 00:49:16;;;;;;;6.32;2.63;;;8.30;99.90;;;;;;5021407;28;20040;-86
2023/02/06 00:51:42;;;;;;;4.50;2.00;;;;;;;;;;5024277;28;20034;-84
2023/02/06 00:54:08;;;;;;;4.85;1.90;;;6.50;99.90;;;;;;5021608;28;20045;-85
2023/02/06 00:56:34;;;;;;;6.32;2.00;;;8.20;99.90;;;;;;5025207;28;20064;-83
2023/02/06 00:59:00;;;;;;;6.80;1.98;;;6.70;99.90;;;;;;5014600;28;20028;-86
2023/02/06 01:01:26;;;;;;;5.63;1.50;;;8.40;99.90;;;;;;5027112;28;20026;-83
2023/02/06 01:03:52;;;;;;;4.20;2.00;;;6.50;99.90;;;;;;5031639;28;20516;-84
2023/02/06 01:06:18;;;;;;;3.83;2.00;;;6.50;99.90;;;;;;5023676;28;20076;-88
2023/02/06 01:08:45;;;;;;;5.80;2.28;;;6.60;99.90;;;;;;5023230;28;20041;-87
2023/02/06 01:11:13;;;;;;;5.65;2.33;;;6.50;99.90;;;;;;5024158;28;20032;-85
2023/02/06 01:13:39;;;;;;;5.82;2.25;;;8.90;99.90;;;;;;5020325;28;20112;-87
2023/02/06 01:16:18;;;;;;;7.10;2.20;;;6.50;99.90;;;;;;5023244;28;20021;-86
2023/02/06 01:18:44;;;;;;;5.60;2.38;;;6.50;99.90;;;;;;5040171;28;20048;-84
2023/02/06 01:21:16;;;;;;;5.88;2.30;;;6.40;99.90;;;;;;5024651;28;20026;-87
2023/02/06 01:23:42;;;;;;;9.13;2.90;;;6.60;99.90;;;;;;5021715;28;20040;-86
2023/02/06 01:26:13;;;;;;;5.30;2.05;;;6.50;99.90;;;;;;5042285;28;20041;-87
2023/02/06 01:28:44;;;;;;;5.90;2.40;;;6.50;99.90;;;;;;5017072;28;20026;-84
2023/02/06 01:31:17;;;;;;;6.13;2.80;;;6.50;99.90;;;;;;5024957;28;20029;-84
2023/02/06 01:33:44;;;;;;;7.35;2.70;;;6.40;99.90;;;;;;5015145;28;20075;-85
2023/02/06 01:36:11;;;;;;;6.63;2.38;;;6.40;99.90;;;;;;5022603;28;20032;-84
2023/02/06 01:38:38;;;;;;;6.95;2.53;;;6.40;99.90;;;;;;5025434;28;20021;-83
2023/02/06 01:41:04;;;;;;;7.80;2.33;;;6.70;99.90;;;;;;5025390;28;20032;-85
2023/02/06 01:43:34;;;;;;;6.82;2.92;;;6.40;99.90;;;;;;5020467;28;20037;-85
2023/02/06 01:46:00;;;;;;;9.95;3.70;;;7.60;99.90;;;;;;5014387;28;20026;-85
2023/02/06 01:48:52;;;;;;;10.60;3.10;;;6.40;99.90;;;;;;5026861;28;20052;-84
2023/02/06 01:51:21;;;;;;;7.22;2.60;;;6.40;99.90;;;;;;5038279;28;20021;-83
2023/02/06 01:53:50;;;;;;;7.47;2.60;;;6.60;99.90;;;;;;5027045;28;20021;-87
2023/02/06 01:56:18;;;;;;;6.32;2.63;;;7.50;99.90;;;;;;5018316;28;20025;-85
2023/02/06 01:58:50;;;;;;;7.07;2.55;;;7.20;99.90;;;;;;5037585;28;20017;-84
2023/02/06 02:01:16;;;;;;;5.05;2.25;;;6.30;99.90;;;;;;5026313;28;20032;-84
2023/02/06 02:03:45;;;;;;;5.38;2.30;;;6.20;99.90;;;;;;5028381;28;20550;-82
2023/02/06 02:06:17;;;;;;;9.85;3.80;;;6.20;99.90;;;;;;5027045;28;20017;-84
2023/02/06 02:08:45;;;;;;;3.90;2.00;;;6.10;99.90;;;;;;5025843;28;20041;-85
2023/02/06 02:11:16;;;;;;;4.18;2.03;;;8.50;99.90;;;;;;5024776;28;20068;-85
2023/02/06 02:13:42;;;;;;;5.00;2.13;;;;;;;;;;5037793;28;20026;-86
2023/02/06 02:16:37;;;;;;;5.95;2.20;;;6.10;99.90;;;;;;5026795;28;20034;-85
2023/02/06 02:19:30;;;;;;;5.40;2.03;;;6.00;99.90;;;;;;5020210;28;20092;-86
2023/02/06 02:22:22;;;;;;;5.72;2.08;;;6.00;99.90;;;;;;5017324;28;20029;-85
2023/02/06 02:25:19;;;;;;;5.88;2.03;;;5.90;99.90;;;;;;5022705;28;20088;-85
2023/02/06 02:28:17;;;;;;;3.40;1.95;;;6.10;99.90;;;;;;5025178;28;20068;-85
2023/02/06 02:31:11;;;;;;;3.38;1.90;;;6.00;99.90;;;;;;5040353;28;20041;-86
2023/02/06 02:33:55;;;;;;;4.20;1.58;;;6.00;99.90;;;;;;5037234;28;20075;-86
2023/02/06 02:36:23;;;;;;;6.30;1.83;;;5.90;99.90;;;;;;5017660;28;20022;-85
2023/02/06 02:39:06;;;;;;;2.38;1.67;;;5.90;99.90;;;;;;5023118;28;20030;-88
2023/02/06 02:41:39;;;;;;;4.07;1.85;;;5.90;99.90;;;;;;5020266;28;20029;-84
2023/02/06 02:44:26;;;;;;;3.13;1.75;;;6.00;99.90;;;;;;5027448;28;20033;-79
2023/02/06 02:46:55;;;;;;;3.17;1.63;;;5.90;99.90;;;;;;5017013;28;20505;-83
2023/02/06 02:49:26;;;;;;;4.93;1.70;;;5.90;99.90;;;;;;5026264;28;20032;-84
2023/02/06 02:51:52;;;;;;;3.60;1.73;;;5.90;99.90;;;;;;5024407;28;21013;-86
2023/02/06 02:54:18;;;;;;;2.47;1.50;;;5.90;99.90;;;;;;5024289;28;20486;-88
2023/02/06 02:56:44;;;;;;;2.95;1.67;;;;;;;;;;5026701;28;20032;-84
2023/02/06 02:59:22;;;;;;;3.97;1.60;;;5.90;99.90;;;;;;5023983;28;20093;-86
2023/02/06 03:01:54;;;;;;;6.65;2.25;;;;;;;;;;5039528;28;20036;-88
2023/02/06 03:04:29;;;;;;;4.75;2.20;;;5.90;99.90;;;;;;5025250;28;20040;-87
2023/02/06 03:07:05;;;;;;;4.35;1.85;;;6.00;99.90;;;;;;5035120;28;20032;-85
2023/02/06 03:09:47;;;;;;;6.18;2.00;;;5.90;99.90;;;;;;5036433;28;20025;-86
2023/02/06 03:12:31;;;;;;;4.88;1.83;;;5.90;99.90;;;;;;5040758;28;20026;-84
2023/02/06 03:15:06;;;;;;;4.35;2.10;;;5.90;99.90;;;;;;5019337;28;20029;-85
2023/02/06 03:17:42;;;;;;;3.70;2.05;;;5.90;99.90;;;;;;5018093;28;20293;-87
2023/02/06 03:20:09;;;;;;;3.65;2.25;;;6.90;99.90;;;;;;5018286;28;20041;-88
2023/02/06 03:22:36;;;;;;;3.60;2.40;;;5.90;99.90;;;;;;5021497;28;20028;-85
2023/02/06 03:25:07;;;;;;;4.53;2.72;;;5.80;99.90;;;;;;5018253;28;20044;-85
2023/02/06 03:27:33;;;;;;;6.40;2.50;;;;;;;;;;5021618;28;20033;-85
2023/02/06 03:30:02;;;;;;;4.05;2.20;;;3.40;99.90;;;;;;5024201;28;20053;-86
2023/02/06 03:32:33;;;;;;;4.90;2.67;;;5.90;99.90;;;;;;5040571;28;20033;-88
2023/02/06 03:35:04;;;;;;;3.92;2.50;;;5.90;99.90;;;;;;5020726;28;20474;-85
2023/02/06 03:37:31;;;;;;;4.50;2.70;;;5.80;99.90;;;;;;5025422;28;20032;-88
2023/02/06 03:39:59;;;;;;;3.22;2.42;;;5.80;99.90;;;;;;5015834;28;20037;-85
2023/02/06 03:42:27;;;;;;;3.47;2.63;;;7.80;99.90;;;;;;5020586;28;20056;-85
2023/02/06 03:45:05;;;;;;;4.00;2.20;;;5.70;99.90;;;;;;5037345;28;20049;-83
2023/02/06 03:47:34;;;;;;;3.83;2.30;;;5.70;99.90;;;;;;5020940;28;20033;-86
2023/02/06 03:50:01;;;;;;;3.80;2.63;;;5.80;99.90;;;;;;5035772;28;20482;-88
2023/02/06 03:52:34;;;;;;;4.90;2.50;;;5.80;99.90;;;;;;5024403;28;20064;-81
2023/02/06 03:55:05;;;;;;;4.47;2.90;;;5.70;99.90;;;;;;5021650;28;20033;-87
2023/02/06 03:57:34;;;;;;;4.75;2.70;;;5.70;99.90;;;;;;5030883;28;20037;-87
2023/02/06 04:00:00;;;;;;;5.07;2.95;;;5.60;99.90;;;;;;5024579;28;20061;-85
2023/02/06 04:02:26;;;;;;;4.03;2.60;;;6.40;99.90;;;;;;5016538;28;20041;-83
2023/02/06 04:04:52;;;;;;;4.90;2.90;;;;;;;;;;5025621;28;20056;-84
2023/02/06 04:07:30;;;;;;;4.40;3.20;;;5.60;99.90;;;;;;5024697;28;20049;-85
2023/02/06 04:09:56;;;;;;;4.28;2.95;;;;;;;;;;5024253;28;20037;-85
2023/02/06 04:12:23;;;;;;;4.20;3.00;;;5.40;99.90;;;;;;5023904;28;20037;-84
2023/02/06 04:14:49;;;;;;;5.03;3.42;;;;;;;;;;5025634;28;20034;-83
2023/02/06 04:17:15;;;;;;;5.20;3.40;;;;;;;;;;5024119;28;20044;-88
2023/02/06 04:19:41;;;;;;;6.45;4.05;;;;;;;;;;5023780;28;20029;-87
2023/02/06 04:22:10;;;;;;;5.20;3.92;;;5.40;99.90;;;;;;5022081;28;20030;-87
2023/02/06 04:24:38;;;;;;;6.10;3.80;;;5.40;99.90;;;;;;5020449;28;20041;-86
2023/02/06 04:27:04;;;;;;;7.05;3.90;;;;;;;;;;5022865;28;20425;-86
2023/02/06 04:29:30;;;;;;;6.35;4.43;;;5.30;99.90;;;;;;5027567;28;20025;-87
2023/02/06 04:32:00;;;;;;;6.00;4.13;;;5.30;99.90;;;;;;5003077;28;20480;-87
2023/02/06 04:34:30;;;;;;;;;;;5.40;99.90;;;;;;5008075;28;20105;-86
2023/02/06 04:36:56;;;;;;;5.63;3.40;;;;;;;;;;5036497;28;19917;-87
2023/02/06 04:39:22;;;;;;;5.95;4.18;;;;;;;;;;5024278;28;20105;-87
2023/02/06 04:41:48;;;;;;;6.25;3.88;;;5.30;99.90;;;;;;5032615;28;20029;-86
2023/02/06 04:44:14;;;;;;;5.18;3.53;;;;;;;;;;5026676;28;20053;-86
2023/02/06 04:46:42;;;;;;;5.47;4.05;;;5.30;99.90;;;;;;5021232;28;20483;-86
2023/02/06 04:49:08;;;;;;;7.25;4.05;;;;;;;;;;5017133;28;20026;-87
2023/02/06 04:51:34;;;;;;;6.20;4.22;;;5.30;99.90;;;;;;5014226;28;20029;-88
2023/02/06 04:54:06;;;;;;;6.70;4.40;;;7.10;99.90;;;;;;5037670;28;20085;-86
2023/02/06 04:56:32;;;;;;;5.35;3.70;;;5.40;99.90;;;;;;5034633;28;20107;-89
2023/02/06 04:58:58;;;;;;;5.55;3.90;;;6.10;99.90;;;;;;5027769;28;20053;-85
2023/02/06 05:01:24;;;;;;;6.13;3.85;;;;;;;;;;5045952;28;20085;-89
2023/02/06 05:03:50;;;;;;;7.85;4.10;;;5.40;99.90;;;;;;5029869;28;20048;-88
2023/02/06 05:06:16;;;;;;;6.00;4.32;;;5.30;99.90;;;;;;5026347;28;20056;-88
2023/02/06 05:08:42;;;;;;;5.10;3.78;;;;;;;;;;5020150;28;20034;-89
2023/02/06 05:11:08;;;;;;;5.53;3.85;;;5.40;99.90;;;;;;5020446;28;20029;-87
2023/02/06 05:13:34;;;;;;;5.93;4.18;;;6.80;99.90;;;;;;5034103;28;20180;-84
2023/02/06 05:16:15;;;;;;;5.28;3.78;;;5.30;99.90;;;;;;5022157;28;20025;-87
2023/02/06 05:18:43;;;;;;;;;;;7.20;99.90;;;;;;5048216;28;20034;-88
2023/02/06 05:21:09;;;;;;;5.20;3.65;;;;;;;;;;5032355;28;19909;-85
2023/02/06 05:23:35;;;;;;;6.70;4.07;;;5.30;99.90;;;;;;5021527;28;20030;-86
2023/02/06 05:26:02;;;;;;;6.25;3.78;;;5.40;99.90;;;;;;5040352;28;20045;-86
2023/02/06 05:28:32;;;;;;;6.30;4.05;;;;;;;;;;5049156;28;20417;-86
2023/02/06 05:31:02;;;;;;;6.20;4.13;;;5.30;99.90;;;;;;5025706;28;20025;-86
2023/02/06 05:33:28;;;;;;;6.60;4.00;;;;;;;;;;5027547;28;20079;-89
2023/02/06 05:35:59;;;;;;;6.32;4.10;;;5.30;99.90;;;;;;5026358;28;20474;-87
2023/02/06 05:38:25;;;;;;;6.75;4.55;;;8.20;99.90;;;;;;5044656;28;20033;-87
2023/02/06 05:40:51;;;;;;;6.60;4.35;;;;;;;;;;5025913;28;20038;-86
2023/02/06 05:43:17;;;;;;;6.25;4.32;;;;;;;;;;5021971;28;20034;-86
2023/02/06 05:45:43;;;;;;;5.93;3.97;;;;;;;;;;5027366;28;20468;-86
2023/02/06 05:48:09;;;;;;;6.45;4.45;;;;;;;;;;5026146;28;20030;-87
2023/02/06 05:50:35;;;;;;;7.03;4.70;;;5.30;99.90;;;;;;5029781;28;20061;-87
2023/02/06 05:53:01;;;;;;;6.97;4.35;;;;;;;;;;5031617;28;20029;-84
2023/02/06 05:55:27;;;;;;;5.90;4.07;;;;;;;;;;5033893;28;20089;-86
2023/02/06 05:57:52;;;;;;;7.28;4.45;;;5.30;99.90;;;;;;5026629;28;20262;-82
2023/02/06 06:00:18;;;;;;;5.57;3.80;;;5.30;99.90;;;;;;5025419;28;20049;-83
2023/02/06 06:02:44;;;;;;;6.80;4.03;;;5.30;99.90;;;;;;5020799;28;20580;-81
2023/02/06 06:05:09;;;;;;;5.47;3.45;;;6.10;99.90;;;;;;5015712;28;20167;-84
2023/02/06 06:07:35;;;;;;;5.75;3.50;;;5.30;99.90;;;;;;5030817;28;20486;-82
2023/02/06 06:10:01;;;;;;;4.60;2.65;;;;;;;;;;5015268;28;20029;-82
2023/02/06 06:12:27;;;;;;;5.25;3.20;;;5.30;99.90;;;;;;5015753;28;20021;-82
2023/02/06 06:14:52;;;;;;;5.80;3.50;;;5.20;99.90;;;;;;5031653;28;20036;-81
2023/02/06 06:17:18;;;;;;;4.13;2.70;;;;;;;;;;5014539;28;20375;-83
2023/02/06 06:19:44;;;;;;;6.07;2.88;;;;;;;;;;5036026;28;20025;-83
2023/02/06 06:22:10;;;;;;;6.38;3.53;;;5.20;99.90;;;;;;5016137;28;20064;-81
2023/02/06 06:24:36;;;;;;;8.75;3.70;;;;;;;;;;5035766;28;20067;-81
2023/02/06 06:27:02;;;;;;;6.57;3.10;;;5.10;99.90;;;;;;5015850;28;20128;-84
2023/02/06 06:29:29;;;;;;;6.82;4.03;;;;;;;;;;5016326;28;20224;-82
2023/02/06 06:31:54;;;;;;;6.65;3.45;;;4.80;99.90;;;;;;5017830;28;20398;-82
2023/02/06 06:34:20;;;;;;;5.22;2.75;;;4.80;99.90;;;;;;5031498;28;20032;-84
2023/02/06 06:36:46;;;;;;;6.28;3.03;;;;;;;;;;5023441;28;20029;-82
2023/02/06 06:39:12;;;;;;;5.70;3.10;;;4.80;99.90;;;;;;5032444;28;20026;-83
2023/02/06 06:41:38;;;;;;;5.35;3.30;;;;;;;;;;5032854;28;20051;-83
2023/02/06 06:44:04;;;;;;;5.35;3.80;;;4.80;99.90;;;;;;5024343;28;20030;-84
2023/02/06 06:46:30;;;;;;;5.85;3.47;;;;;;;;;;5048156;28;20037;-85
2023/02/06 06:48:56;;;;;;;6.40;3.47;;;;;;;;;;5052914;28;20084;-86
2023/02/06 06:51:22;;;;;;;5.88;3.58;;;;;;;;;;5034205;28;20045;-83
2023/02/06 06:53:48;;;;;;;5.90;3.83;;;;;;;;;;5051481;28;20112;-85
2023/02/06 06:56:14;;;;;;;6.35;3.85;;;4.70;99.90;;;;;;5034314;28;20032;-84
2023/02/06 06:58:41;;;;;;;5.50;3.45;;;;;;;;;;5032861;28;20021;-83
2023/02/06 07:01:07;;;;;;;5.55;3.60;;;;;;;;;;5028076;28;20029;-82
2023/02/06 07:03:33;;;;;;;7.60;3.58;;;;;;;;;;5022321;28;20045;-81
2023/02/06 07:06:02;;;;;;;5.97;3.83;;;;;;;;;;5020122;28;20030;-82
2023/02/06 07:08:29;;;;;;;6.30;4.10;;;;;;;;;;5023667;28;20033;-84
2023/02/06 07:10:55;;;;;;;6.82;3.90;;;;;;;;;;5031211;28;20030;-83
2023/02/06 07:13:21;;;;;;;7.22;4.32;;;;;;;;;;5027857;28;20033;-83
2023/02/06 07:15:47;;;;;;;7.55;4.20;;;;;;;;;;5033416;28;20024;-82
2023/02/06 07:18:13;;;;;;;8.10;5.00;;;;;;;;;;5030542;28;20037;-81
2023/02/06 07:20:39;;;;;;;8.88;4.22;;;;;;;;;;5022926;28;20411;-81
2023/02/06 07:23:06;;;;;;;9.77;4.85;;;;;;;;;;5024979;28;20056;-82
2023/02/06 07:25:32;;;;;;;7.03;4.60;;;;;;;;;;5024404;28;20564;-81
2023/02/06 07:27:58;;;;;;;7.55;4.75;;;;;;;;;;5020736;28;20033;-82
2023/02/06 07:30:24;;;;;;;7.38;5.40;;;;;;;;;;5038220;28;20513;-80
2023/02/06 07:32:50;;;;;;;8.98;5.05;;;;;;;;;;5040581;28;20062;-83
2023/02/06 07:35:16;;;;;;;8.32;5.35;;;;;;;;;;5042076;28;20038;-83
2023/02/06 07:37:42;;;;;;;7.97;5.43;;;;;;;;;;5020155;28;20029;-82
2023/02/06 07:40:09;;;;;;;7.07;4.80;;;;;;;;;;5024423;28;20033;-81
2023/02/06 07:42:35;;;;;;;7.38;4.20;;;;;;;;;;5022858;28;20029;-83
2023/02/06 07:45:01;;;;;;;8.05;4.78;;;;;;;;;;5027988;28;20036;-84
2023/02/06 07:47:27;;;;;;;7.97;4.55;;;;;;;;;;5023768;28;20116;-85
2023/02/06 07:49:53;;;;;;;7.53;4.60;;;;;;;;;;5029632;28;20682;-84
2023/02/06 07:52:20;;;;;;;6.07;3.92;;;;;;;;;;5045266;28;20026;-85
2023/02/06 07:54:46;;;;;;;7.30;4.38;;;;;;;;;;5031698;28;20025;-84
2023/02/06 07:57:12;;;;;;;7.72;4.53;;;;;;;;;;5031434;28;20037;-86
2023/02/06 07:59:38;;;;;;;9.18;5.28;;;;;;;;;;5035092;28;20089;-85
2023/02/06 08:02:04;;;;;;;7.68;4.57;;;;;;;;;;5033554;28;20041;-82
2023/02/06 08:04:34;;;;;;;8.48;4.55;;;;;;;;;;5028877;28;20076;-84
2023/02/06 08:07:01;;;;;;;7.82;4.80;;;4.70;99.90;;;;;;5023842;28;20047;-82
2023/02/06 08:09:27;;;;;;;7.22;4.30;;;;;;;;;;5028967;28;20029;-84
2023/02/06 08:11:53;;;;;;;6.15;4.15;;;;;;;;;;5030247;28;20060;-85
2023/02/06 08:14:19;;;;;;;8.30;4.82;;;;;;;;;;5047329;28;20021;-84
2023/02/06 08:16:45;;;;;;;7.03;4.70;;;;;;;;;;5026824;28;20049;-84
2023/02/06 08:19:11;;;;;;;6.80;4.43;;;;;;;;;;5024600;28;20089;-84
2023/02/06 08:21:37;;;;;;;11.15;4.80;;;;;;;;;;5029055;28;20101;-85
2023/02/06 08:24:03;;;;;;;5.82;4.07;;;4.80;99.90;;;;;;5045819;28;20033;-84
2023/02/06 08:26:32;;;;;;;8.43;4.65;;;;;;;;;;5028767;28;20041;-86
2023/02/06 08:29:02;;;;;;;6.93;4.30;;;4.90;99.90;;;;;;5028642;28;20048;-82
2023/02/06 08:31:48;;;;;;;7.47;4.35;;;4.90;99.90;;;;;;5026637;28;20060;-80
2023/02/06 08:34:14;;;;;;;6.93;4.32;;;;;;;;;;5018699;28;20056;-82
2023/02/06 08:36:41;;;;;;;5.85;3.90;;;;;;;;;;5027223;28;20030;-85
2023/02/06 08:39:07;;;;;;;6.00;4.07;;;4.70;99.90;;;;;;5027141;28;20072;-84
2023/02/06 08:41:36;;;;;;;5.32;3.90;;;4.60;99.90;;;;;;5023970;28;20033;-80
2023/02/06 08:44:04;;;;;;;6.00;4.00;;;4.60;99.90;;;;;;5037606;28;20033;-81
2023/02/06 08:46:31;;;;;;;6.45;3.45;;;4.60;99.90;;;;;;5026216;28;20025;-82
2023/02/06 08:48:59;;;;;;;5.53;3.70;;;4.70;99.90;;;;;;5015958;28;20387;-82
2023/02/06 08:51:26;;;;;;;5.97;3.47;;;7.60;99.90;;;;;;5022793;28;20033;-84
2023/02/06 08:53:58;;;;;;;5.85;3.70;;;4.70;99.90;;;;;;5021547;28;20114;-83
2023/02/06 08:56:25;;;;;;;6.40;3.80;;;;;;;;;;5020550;28;20029;-80
2023/02/06 08:58:52;;;;;;;5.07;3.63;;;;;;;;;;5023640;28;20600;-84
2023/02/06 09:01:18;;;;;;;6.97;3.90;;;4.80;99.90;;;;;;5017540;28;20375;-84
2023/02/06 09:03:45;;;;;;;6.20;3.40;;;4.80;99.90;;;;;;5014300;28;20033;-84
2023/02/06 09:06:12;;;;;;;7.38;3.53;;;5.00;99.90;;;;;;5014902;28;20033;-82
2023/02/06 09:08:40;;;;;;;6.15;4.00;;;5.10;99.90;;;;;;5023592;28;20306;-84
2023/02/06 09:11:11;;;;;;;5.63;3.70;;;5.10;99.90;;;;;;5021862;28;20041;-80
2023/02/06 09:13:38;;;;;;;5.65;3.83;;;6.30;99.90;;;;;;5020463;28;20566;-82
2023/02/06 09:16:04;;;;;;;5.95;3.88;;;5.30;99.90;;;;;;5032046;28;20042;-81
2023/02/06 09:18:30;;;;;;;5.93;3.92;;;;;;;;;;5002200;28;20048;-83
2023/02/06 09:21:15;;;;;;;6.25;4.30;;;5.30;99.90;;;;;;5031428;28;20048;-85
2023/02/06 09:23:43;;;;;;;6.70;4.28;;;5.90;99.90;;;;;;5013717;28;20036;-80
2023/02/06 09:26:10;;;;;;;7.72;4.20;;;5.30;99.90;;;;;;5032036;28;20082;-81
2023/02/06 09:28:37;;;;;;;6.95;4.45;;;;;;;;;;5016913;28;20029;-79
2023/02/06 09:31:03;;;;;;;5.63;4.38;;;5.30;99.90;;;;;;5012699;28;20084;-80
2023/02/06 09:33:29;;;;;;;7.97;4.40;;;;;;;;;;5035306;28;20467;-80
2023/02/06 09:36:07;;;;;;;7.20;4.63;;;5.30;99.90;;;;;;5016857;28;20493;-84
2023/02/06 09:38:33;;;;;;;7.35;4.93;;;5.50;99.90;;;;;;5034489;28;20083;-87
2023/02/06 09:41:10;;;;;;;8.43;6.13;;;5.40;99.90;;;;;;5037423;28;20036;-83
2023/02/06 09:43:36;;;;;;;8.20;4.63;;;;;;;;;;5018090;28;20030;-81
2023/02/06 09:46:06;;;;;;;6.20;4.18;;;5.40;99.90;;;;;;5021450;28;20036;-80
2023/02/06 09:48:35;;;;;;;7.03;4.43;;;5.50;99.90;;;;;;5015973;28;20093;-81
2023/02/06 09:51:22;;;;;;;6.15;3.42;;;5.40;99.90;;;;;;5037545;28;20072;-80
2023/02/06 09:54:07;;;;;;;5.57;3.40;;;5.60;99.90;;;;;;5029818;28;20463;-83
2023/02/06 09:56:55;;;;;;;6.07;3.83;;;5.80;99.90;;;;;;5031426;28;20057;-81
2023/02/06 09:59:40;;;;;;;4.85;3.33;;;5.70;99.90;;;;;;5019199;28;20041;-80
2023/02/06 10:02:31;;;;;;;5.28;3.28;;;5.70;99.90;;;;;;5034625;28;20029;-82
2023/02/06 10:05:18;;;;;;;4.65;2.90;;;5.80;99.90;;;;;;5034152;28;20040;-85
2023/02/06 10:08:02;;;;;;;4.40;2.90;;;5.90;99.90;;;;;;5015465;28;20033;-84
2023/02/06 10:10:47;;;;;;;4.25;2.53;;;6.00;99.90;;;;;;5026140;28;20027;-83
2023/02/06 10:13:28;;;;;;;3.95;2.53;;;5.90;99.90;;;;;;5040656;28;20110;-86
2023/02/06 10:16:04;;;;;;;4.38;2.70;;;6.00;99.90;;;;;;5041049;28;20020;-84
2023/02/06 10:18:38;;;;;;;4.72;2.30;;;6.00;99.90;;;;;;5014043;28;20040;-84
2023/02/06 10:21:19;;;;;;;3.42;2.28;;;6.10;99.90;;;;;;5033553;28;20033;-82
2023/02/06 10:24:16;;;;;;;5.13;2.55;;;6.20;99.90;;;;;;5044662;22;20017;-86
2023/02/06 10:26:42;;;;;;;4.35;2.50;;;;;;;;;;5053972;28;20033;-87
2023/02/06 10:29:14;;;;;;;3.75;2.60;;;;;;;;;;5067783;28;20075;-84
2023/02/06 10:31:53;;;;;;;8.57;2.70;;;;;;;;;;5054196;28;20041;-84
2023/02/06 10:34:40;;;;;;;4.97;2.35;;;6.20;99.90;;;;;;5040945;28;20030;-85
2023/02/06 10:37:06;;;;;;;3.47;2.25;;;;;;;;;;5052379;28;20022;-87
2023/02/06 10:39:32;;;;;;;4.25;2.50;;;;;;;;;;5041459;28;20033;-90
2023/02/06 10:42:20;;;;;;;3.92;2.53;;;6.30;99.90;;;;;;5052735;28;20036;-86
2023/02/06 19:35:46;;;;;;;16.33;6.97;;;;;;;;;;5112235;27;21064;-81
2023/02/06 19:38:13;;;;;;;19.20;8.55;;;4.80;99.90;;;;;;5095553;28;20025;-79
2023/02/06 19:40:40;;;;;;;15.70;7.57;;;;;;;;;;5088760;28;20032;-81
2023/02/06 19:43:07;;;;;;;16.17;6.93;;;;;;;;;;5092176;28;20023;-81
2023/02/06 19:45:35;;;;;;;11.30;5.55;;;4.60;99.90;;;;;;5092862;28;20089;-81
2023/02/06 19:48:01;;;;;;;8.93;4.22;;;4.60;99.90;;;;;;5090111;28;20024;-81
2023/02/06 19:50:28;;;;;;;10.23;4.97;;;4.60;99.90;;;;;;5085477;28;20035;-80
2023/02/06 19:52:56;;;;;;;11.35;4.63;;;4.60;99.90;;;;;;5093360;28;20157;-81
2023/02/06 19:55:28;;;;;;;14.95;5.60;;;4.60;99.90;;;;;;5094309;28;20039;-81
2023/02/06 19:58:41;;;;;;;12.45;5.28;;;4.60;99.90;;;;;;5092392;28;20044;-83
2023/02/06 20:01:35;;;;;;;9.65;5.20;;;4.60;99.90;;;;;;5086627;28;20034;-78
2023/02/06 20:08:47;;;;;;;14.02;5.88;;;3.90;99.90;;;;;;5083261;28;20035;-81
2023/02/06 20:11:50;;;;;;;15.40;6.32;;;4.50;99.90;;;;;;4964712;28;20069;-81
2023/02/06 20:18:06;;;;;;;16.38;6.78;;;4.50;99.90;;;;;;4945243;28;20039;-79
2023/02/06 20:21:07;;;;;;;11.32;6.10;;;4.40;99.90;;;;;;5037366;28;20039;-83
2023/02/06 20:24:49;;;;;;;15.48;6.03;;;4.40;99.90;;;;;;5068994;28;20028;-81
2023/02/06 20:28:26;;;;;;;14.18;5.80;;;4.30;99.90;;;;;;4992668;28;20041;-83
2023/02/06 20:35:06;;;;;;;16.15;5.95;;;4.30;99.90;;;;;;4926701;29;20129;-83
2023/02/06 21:21:08;;;;;;;13.90;4.90;;;4.30;99.90;;;;;;4963261;28;20115;-83
2023/02/06 21:23:49;;;;;;;11.20;5.13;;;4.30;99.90;;;;;;4967298;28;20195;-81
2023/02/06 21:26:22;;;;;;;11.43;4.45;;;5.10;99.90;;;;;;5002842;28;20034;-83
2023/02/06 21:29:48;;;;;;;13.50;4.10;;;4.10;99.90;;;;;;5072884;28;20033;-82
2023/02/06 21:33:18;;;;;;;10.75;4.13;;;4.10;99.90;;;;;;5027366;28;20036;-83
2023/02/06 21:36:53;;;;;;;8.63;3.60;;;4.10;99.90;;;;;;5064287;28;20524;-84
2023/02/06 21:42:55;;;;;;;7.57;3.28;;;4.10;99.90;;;;;;5060250;28;20036;-79
2023/02/06 21:45:21;;;;;;;12.77;3.40;;;5.40;99.90;;;;;;5047751;28;20048;-82
2023/02/06 21:47:54;;;;;;;9.27;3.67;;;4.00;99.90;;;;;;5076860;28;20043;-80
2023/02/06 21:50:56;;;;;;;8.93;3.25;;;4.00;99.90;;;;;;5061427;28;20079;-84
2023/02/06 21:53:34;;;;;;;7.97;3.33;;;4.00;99.90;;;;;;5077722;28;20561;-83
2023/02/06 21:56:05;;;;;;;9.57;3.13;;;3.90;99.90;;;;;;5075264;28;20020;-81
2023/02/06 21:58:31;;;;;;;8.88;2.95;;;3.90;99.90;;;;;;5079131;28;20036;-80
2023/02/06 22:00:57;;;;;;;10.02;3.00;;;4.00;99.90;;;;;;5079765;28;20032;-82
2023/02/06 22:03:55;;;;;;;19.92;4.25;;;3.90;99.90;;;;;;5076573;28;20108;-80
2023/02/06 22:07:12;;;;;;;8.02;3.38;;;4.00;99.90;;;;;;5076489;28;20032;-84
2023/02/06 22:09:58;;;;;;;5.15;2.67;;;4.00;99.90;;;;;;5052370;28;20508;-82
2023/02/06 22:15:36;;;;;;;6.40;2.83;;;3.80;99.90;;;;;;5079316;28;20113;-84
2023/02/06 22:18:15;;;;;;;6.50;2.75;;;3.70;99.90;;;;;;5076883;28;20504;-81
2023/02/06 22:21:15;;;;;;;8.63;3.05;;;4.00;99.90;;;;;;5075266;28;20040;-80
2023/02/06 22:23:43;;;;;;;6.72;2.55;;;;;;;;;;5066923;22;20057;-86
2023/02/06 22:26:11;;;;;;;6.53;2.38;;;3.90;99.90;;;;;;5076072;28;21085;-85
2023/02/06 22:28:42;;;;;;;8.77;2.80;;;4.00;99.90;;;;;;5066446;28;20037;-82
2023/02/06 22:31:20;;;;;;;7.80;2.70;;;3.90;99.90;;;;;;5078121;28;20039;-87
2023/02/06 22:33:52;;;;;;;6.43;2.67;;;3.80;99.90;;;;;;5064839;28;20042;-83
2023/02/06 22:36:23;;;;;;;8.57;3.28;;;3.80;99.90;;;;;;5044512;28;20052;-88
2023/02/06 22:38:58;;;;;;;4.38;2.30;;;3.90;99.90;;;;;;5042265;28;20090;-84
2023/02/06 22:41:24;;;;;;;6.20;2.75;;;;;;;;;;5044008;28;20026;-84
2023/02/06 22:43:51;;;;;;;6.03;2.40;;;;;;;;;;5047530;28;20033;-82
2023/02/06 22:46:19;;;;;;;6.85;2.72;;;3.70;99.90;;;;;;5058045;28;20026;-85
2023/02/06 22:48:45;;;;;;;6.30;2.40;;;4.70;99.90;;;;;;5037420;28;20025;-84
2023/02/06 22:51:12;;;;;;;6.18;3.00;;;;;;;;;;5060542;28;20628;-87
2023/02/06 22:53:38;;;;;;;3.33;2.00;;;;;;;;;;5040243;28;20030;-84
2023/02/06 22:56:30;;;;;;;5.32;2.40;;;3.50;99.90;;;;;;5043860;28;20037;-83
2023/02/06 22:59:17;;;;;;;6.15;2.60;;;3.50;99.90;;;;;;5042984;28;20095;-83
2023/02/06 23:01:48;;;;;;;6.15;2.50;;;3.40;99.90;;;;;;5039377;28;20052;-85
2023/02/06 23:04:22;;;;;;;;;;;3.50;99.90;;;;;;5045323;28;20029;-84
2023/02/06 23:06:49;;;;;;;7.07;2.60;;;;;;;;;;5048773;28;19916;-85
2023/02/06 23:09:27;;;;;;;6.35;2.55;;;3.30;99.90;;;;;;5046001;28;20025;-84
2023/02/06 23:11:54;;;;;;;9.85;3.97;;;3.20;99.90;;;;;;5042758;28;20025;-85
2023/02/06 23:14:20;;;;;;;6.13;2.60;;;;;;;;;;5040517;28;20076;-86
2023/02/06 23:16:47;;;;;;;8.98;2.78;;;;;;;;;;5045977;28;20056;-86
2023/02/06 23:19:14;;;;;;;5.38;2.20;;;3.20;99.90;;;;;;5041952;28;20030;-88
2023/02/06 23:21:41;;;;;;;4.78;2.60;;;3.40;99.90;;;;;;5063816;28;20100;-85
2023/02/06 23:24:09;;;;;;;5.57;2.60;;;3.30;99.90;;;;;;5042201;28;20116;-86
2023/02/06 23:26:36;;;;;;;4.50;2.38;;;;;;;;;;5063325;28;20112;-86
2023/02/06 23:29:07;;;;;;;5.60;2.58;;;3.40;99.90;;;;;;5042882;28;20070;-87
2023/02/06 23:31:33;;;;;;;5.78;2.60;;;;;;;;;;5044966;28;20033;-85
2023/02/06 23:33:59;;;;;;;4.80;2.38;;;;;;;;;;5046372;28;20021;-84
2023/02/06 23:36:28;;;;;;;5.07;2.35;;;3.10;99.90;;;;;;5046132;28;20098;-87
2023/02/06 23:38:54;;;;;;;5.95;2.42;;;;;;;;;;5040205;28;20038;-83
2023/02/06 23:41:24;;;;;;;5.40;2.47;;;3.20;99.90;;;;;;5033717;28;20104;-82
2023/02/06 23:43:52;;;;;;;6.00;2.60;;;3.10;99.90;;;;;;5040825;28;20030;-84
2023/02/06 23:46:20;;;;;;;6.95;2.60;;;;;;;;;;5056426;28;20026;-83